sensor_id;sensor_type;location;lat;lon;timestamp;P1;durP1;ratioP1;P2;durP2;ratioP2
11767;SDS011;5941;57.652;12.514;2022-07-10T00:02:26;5.83;;;2.90;;
11767;SDS011;5941;57.652;12.514;2022-07-10T00:04:51;4.70;;;2.40;;
11767;SDS011;5941;57.652;12.514;2022-07-10T00:07:17;7.47;;;2.40;;
11767;SDS011;5941;57.652;12.514;2022-07-10T00:09:43;3.00;;;1.47;;
11767;SDS011;5941;57.652;12.514;2022-07-10T00:12:09;3.83;;;1.60;;
11767;SDS011;5941;57.652;12.514;2022-07-10T00:14:35;3.83;;;1.70;;
11767;SDS011;5941;57.652;12.514;2022-07-10T00:17:01;5.00;;;1.70;;
11767;SDS011;5941;57.652;12.514;2022-07-10T00:19:27;2.47;;;1.40;;
11767;SDS011;5941;57.652;12.514;2022-07-10T00:21:53;4.87;;;1.80;;
11767;SDS011;5941;57.652;12.514;2022-07-10T00:24:19;3.23;;;1.33;;
11767;SDS011;5941;57.652;12.514;2022-07-10T00:26:45;2.13;;;1.20;;
11767;SDS011;5941;57.652;12.514;2022-07-10T00:29:12;4.23;;;1.40;;
11767;SDS011;5941;57.652;12.514;2022-07-10T00:31:38;3.07;;;1.60;;
11767;SDS011;5941;57.652;12.514;2022-07-10T00:34:04;4.20;;;1.10;;
11767;SDS011;5941;57.652;12.514;2022-07-10T00:36:31;1.97;;;1.07;;
11767;SDS011;5941;57.652;12.514;2022-07-10T00:38:57;2.77;;;1.20;;
11767;SDS011;5941;57.652;12.514;2022-07-10T00:41:23;2.63;;;1.10;;
11767;SDS011;5941;57.652;12.514;2022-07-10T00:46:18;2.37;;;1.07;;
11767;SDS011;5941;57.652;12.514;2022-07-10T00:48:48;3.03;;;1.30;;
11767;SDS011;5941;57.652;12.514;2022-07-10T00:51:14;3.17;;;1.40;;
11767;SDS011;5941;57.652;12.514;2022-07-10T00:53:41;3.13;;;1.37;;
11767;SDS011;5941;57.652;12.514;2022-07-10T00:56:07;3.57;;;1.50;;
11767;SDS011;5941;57.652;12.514;2022-07-10T00:58:34;1.83;;;1.10;;
11767;SDS011;5941;57.652;12.514;2022-07-10T01:01:01;4.27;;;1.33;;
11767;SDS011;5941;57.652;12.514;2022-07-10T01:03:27;3.43;;;1.30;;
11767;SDS011;5941;57.652;12.514;2022-07-10T01:05:53;2.30;;;1.23;;
11767;SDS011;5941;57.652;12.514;2022-07-10T01:08:19;3.80;;;1.20;;
11767;SDS011;5941;57.652;12.514;2022-07-10T01:10:45;2.27;;;1.20;;
11767;SDS011;5941;57.652;12.514;2022-07-10T01:13:13;2.70;;;1.10;;
11767;SDS011;5941;57.652;12.514;2022-07-10T01:15:39;3.40;;;1.30;;
11767;SDS011;5941;57.652;12.514;2022-07-10T01:18:05;3.60;;;1.30;;
11767;SDS011;5941;57.652;12.514;2022-07-10T01:20:32;2.77;;;1.17;;
11767;SDS011;5941;57.652;12.514;2022-07-10T01:22:58;3.67;;;1.47;;
11767;SDS011;5941;57.652;12.514;2022-07-10T01:25:24;1.67;;;1.27;;
11767;SDS011;5941;57.652;12.514;2022-07-10T01:27:50;4.43;;;1.40;;
11767;SDS011;5941;57.652;12.514;2022-07-10T01:30:16;2.57;;;1.20;;
11767;SDS011;5941;57.652;12.514;2022-07-10T01:32:44;5.33;;;1.53;;
11767;SDS011;5941;57.652;12.514;2022-07-10T01:35:10;2.60;;;1.33;;
11767;SDS011;5941;57.652;12.514;2022-07-10T01:37:40;3.97;;;1.60;;
11767;SDS011;5941;57.652;12.514;2022-07-10T01:40:06;1.93;;;1.07;;
11767;SDS011;5941;57.652;12.514;2022-07-10T01:42:32;2.53;;;1.30;;
11767;SDS011;5941;57.652;12.514;2022-07-10T01:44:58;3.07;;;1.10;;
11767;SDS011;5941;57.652;12.514;2022-07-10T01:47:24;3.60;;;1.20;;
11767;SDS011;5941;57.652;12.514;2022-07-10T01:49:52;3.23;;;1.13;;
11767;SDS011;5941;57.652;12.514;2022-07-10T01:52:21;3.47;;;1.40;;
11767;SDS011;5941;57.652;12.514;2022-07-10T01:54:47;2.20;;;1.40;;
11767;SDS011;5941;57.652;12.514;2022-07-10T01:57:13;4.23;;;1.17;;
11767;SDS011;5941;57.652;12.514;2022-07-10T01:59:40;3.43;;;1.57;;
11767;SDS011;5941;57.652;12.514;2022-07-10T02:02:06;3.63;;;1.33;;
11767;SDS011;5941;57.652;12.514;2022-07-10T02:04:32;2.73;;;1.10;;
11767;SDS011;5941;57.652;12.514;2022-07-10T02:07:07;4.23;;;1.40;;
11767;SDS011;5941;57.652;12.514;2022-07-10T02:09:33;3.30;;;1.13;;
11767;SDS011;5941;57.652;12.514;2022-07-10T02:12:00;3.07;;;1.50;;
11767;SDS011;5941;57.652;12.514;2022-07-10T02:14:26;2.17;;;1.10;;
11767;SDS011;5941;57.652;12.514;2022-07-10T02:16:52;2.57;;;1.40;;
11767;SDS011;5941;57.652;12.514;2022-07-10T02:19:18;3.07;;;1.30;;
11767;SDS011;5941;57.652;12.514;2022-07-10T02:21:44;3.80;;;1.00;;
11767;SDS011;5941;57.652;12.514;2022-07-10T02:24:13;2.63;;;1.20;;
11767;SDS011;5941;57.652;12.514;2022-07-10T02:26:39;1.37;;;1.10;;
11767;SDS011;5941;57.652;12.514;2022-07-10T02:29:05;3.10;;;1.10;;
11767;SDS011;5941;57.652;12.514;2022-07-10T02:31:31;1.27;;;1.17;;
11767;SDS011;5941;57.652;12.514;2022-07-10T02:34:05;0.87;;;0.70;;
11767;SDS011;5941;57.652;12.514;2022-07-10T02:36:31;1.77;;;1.20;;
11767;SDS011;5941;57.652;12.514;2022-07-10T02:38:57;2.53;;;1.13;;
11767;SDS011;5941;57.652;12.514;2022-07-10T02:41:23;2.13;;;1.20;;
11767;SDS011;5941;57.652;12.514;2022-07-10T02:43:48;3.07;;;1.00;;
11767;SDS011;5941;57.652;12.514;2022-07-10T02:46:14;3.40;;;1.20;;
11767;SDS011;5941;57.652;12.514;2022-07-10T02:48:40;2.63;;;1.07;;
11767;SDS011;5941;57.652;12.514;2022-07-10T02:51:06;2.43;;;1.27;;
11767;SDS011;5941;57.652;12.514;2022-07-10T02:53:32;2.03;;;1.20;;
11767;SDS011;5941;57.652;12.514;2022-07-10T02:55:58;2.87;;;1.20;;
11767;SDS011;5941;57.652;12.514;2022-07-10T02:58:24;3.73;;;1.60;;
11767;SDS011;5941;57.652;12.514;2022-07-10T03:00:50;1.90;;;1.30;;
11767;SDS011;5941;57.652;12.514;2022-07-10T03:03:16;3.17;;;1.33;;
11767;SDS011;5941;57.652;12.514;2022-07-10T03:05:45;2.40;;;1.47;;
11767;SDS011;5941;57.652;12.514;2022-07-10T03:08:12;3.03;;;1.10;;
11767;SDS011;5941;57.652;12.514;2022-07-10T03:10:38;2.23;;;1.20;;
11767;SDS011;5941;57.652;12.514;2022-07-10T03:13:05;3.47;;;1.23;;
11767;SDS011;5941;57.652;12.514;2022-07-10T03:15:31;6.17;;;1.50;;
11767;SDS011;5941;57.652;12.514;2022-07-10T03:17:57;2.47;;;1.40;;
11767;SDS011;5941;57.652;12.514;2022-07-10T03:20:23;4.00;;;1.17;;
11767;SDS011;5941;57.652;12.514;2022-07-10T03:22:49;2.37;;;1.30;;
11767;SDS011;5941;57.652;12.514;2022-07-10T03:25:15;5.43;;;1.63;;
11767;SDS011;5941;57.652;12.514;2022-07-10T03:27:41;2.60;;;1.20;;
11767;SDS011;5941;57.652;12.514;2022-07-10T03:30:07;2.30;;;1.00;;
11767;SDS011;5941;57.652;12.514;2022-07-10T03:32:33;4.73;;;1.10;;
11767;SDS011;5941;57.652;12.514;2022-07-10T03:34:59;3.70;;;1.10;;
11767;SDS011;5941;57.652;12.514;2022-07-10T03:37:25;1.97;;;1.03;;
11767;SDS011;5941;57.652;12.514;2022-07-10T03:39:52;2.43;;;0.93;;
11767;SDS011;5941;57.652;12.514;2022-07-10T03:42:18;2.37;;;1.27;;
11767;SDS011;5941;57.652;12.514;2022-07-10T03:44:44;3.70;;;1.20;;
11767;SDS011;5941;57.652;12.514;2022-07-10T03:47:10;1.37;;;1.20;;
11767;SDS011;5941;57.652;12.514;2022-07-10T03:49:36;1.23;;;0.80;;
11767;SDS011;5941;57.652;12.514;2022-07-10T03:52:04;3.57;;;1.17;;
11767;SDS011;5941;57.652;12.514;2022-07-10T03:54:30;4.87;;;1.40;;
11767;SDS011;5941;57.652;12.514;2022-07-10T03:56:57;3.23;;;1.30;;
11767;SDS011;5941;57.652;12.514;2022-07-10T03:59:42;2.63;;;1.10;;
11767;SDS011;5941;57.652;12.514;2022-07-10T04:02:08;2.67;;;1.00;;
11767;SDS011;5941;57.652;12.514;2022-07-10T04:04:34;1.90;;;1.20;;
11767;SDS011;5941;57.652;12.514;2022-07-10T04:07:00;2.73;;;0.93;;
11767;SDS011;5941;57.652;12.514;2022-07-10T04:09:26;1.67;;;0.97;;
11767;SDS011;5941;57.652;12.514;2022-07-10T04:11:52;2.77;;;1.30;;
11767;SDS011;5941;57.652;12.514;2022-07-10T04:14:18;2.93;;;1.10;;
11767;SDS011;5941;57.652;12.514;2022-07-10T04:16:44;3.23;;;1.10;;
11767;SDS011;5941;57.652;12.514;2022-07-10T04:19:10;2.67;;;1.10;;
11767;SDS011;5941;57.652;12.514;2022-07-10T04:21:36;2.53;;;1.23;;
11767;SDS011;5941;57.652;12.514;2022-07-10T04:24:02;2.20;;;1.00;;
11767;SDS011;5941;57.652;12.514;2022-07-10T04:26:28;2.13;;;1.10;;
11767;SDS011;5941;57.652;12.514;2022-07-10T04:28:54;2.50;;;1.17;;
11767;SDS011;5941;57.652;12.514;2022-07-10T04:31:20;1.90;;;1.20;;
11767;SDS011;5941;57.652;12.514;2022-07-10T04:33:46;1.90;;;1.03;;
11767;SDS011;5941;57.652;12.514;2022-07-10T04:36:13;1.80;;;1.10;;
11767;SDS011;5941;57.652;12.514;2022-07-10T04:38:39;2.73;;;1.07;;
11767;SDS011;5941;57.652;12.514;2022-07-10T04:41:05;2.07;;;1.00;;
11767;SDS011;5941;57.652;12.514;2022-07-10T04:43:31;2.07;;;1.00;;
11767;SDS011;5941;57.652;12.514;2022-07-10T04:45:57;1.50;;;1.20;;
11767;SDS011;5941;57.652;12.514;2022-07-10T04:48:23;1.13;;;1.03;;
11767;SDS011;5941;57.652;12.514;2022-07-10T04:50:49;1.73;;;1.07;;
11767;SDS011;5941;57.652;12.514;2022-07-10T04:53:15;2.63;;;1.30;;
11767;SDS011;5941;57.652;12.514;2022-07-10T04:55:41;2.63;;;1.10;;
11767;SDS011;5941;57.652;12.514;2022-07-10T04:58:07;1.03;;;1.00;;
11767;SDS011;5941;57.652;12.514;2022-07-10T05:00:33;1.20;;;0.80;;
11767;SDS011;5941;57.652;12.514;2022-07-10T05:02:59;1.00;;;0.90;;
11767;SDS011;5941;57.652;12.514;2022-07-10T05:05:25;2.10;;;0.80;;
11767;SDS011;5941;57.652;12.514;2022-07-10T05:07:51;2.07;;;0.87;;
11767;SDS011;5941;57.652;12.514;2022-07-10T05:10:17;2.47;;;0.77;;
11767;SDS011;5941;57.652;12.514;2022-07-10T05:12:43;1.00;;;0.77;;
11767;SDS011;5941;57.652;12.514;2022-07-10T05:15:09;1.17;;;0.67;;
11767;SDS011;5941;57.652;12.514;2022-07-10T05:17:35;0.60;;;0.60;;
11767;SDS011;5941;57.652;12.514;2022-07-10T05:20:01;0.47;;;0.47;;
11767;SDS011;5941;57.652;12.514;2022-07-10T05:22:27;0.70;;;0.50;;
11767;SDS011;5941;57.652;12.514;2022-07-10T05:24:55;0.60;;;0.60;;
11767;SDS011;5941;57.652;12.514;2022-07-10T05:27:21;0.67;;;0.43;;
11767;SDS011;5941;57.652;12.514;2022-07-10T05:29:47;0.37;;;0.37;;
11767;SDS011;5941;57.652;12.514;2022-07-10T05:32:13;0.90;;;0.50;;
11767;SDS011;5941;57.652;12.514;2022-07-10T05:34:39;1.40;;;0.53;;
11767;SDS011;5941;57.652;12.514;2022-07-10T05:37:05;0.47;;;0.43;;
11767;SDS011;5941;57.652;12.514;2022-07-10T05:39:32;0.47;;;0.40;;
11767;SDS011;5941;57.652;12.514;2022-07-10T05:41:58;0.60;;;0.60;;
11767;SDS011;5941;57.652;12.514;2022-07-10T05:44:24;0.80;;;0.60;;
11767;SDS011;5941;57.652;12.514;2022-07-10T05:46:50;0.40;;;0.40;;
11767;SDS011;5941;57.652;12.514;2022-07-10T05:49:16;0.57;;;0.40;;
11767;SDS011;5941;57.652;12.514;2022-07-10T05:51:42;0.37;;;0.33;;
11767;SDS011;5941;57.652;12.514;2022-07-10T05:54:08;0.50;;;0.40;;
11767;SDS011;5941;57.652;12.514;2022-07-10T05:56:34;0.40;;;0.40;;
11767;SDS011;5941;57.652;12.514;2022-07-10T05:59:00;1.17;;;0.27;;
11767;SDS011;5941;57.652;12.514;2022-07-10T06:01:26;0.77;;;0.27;;
11767;SDS011;5941;57.652;12.514;2022-07-10T06:03:52;0.10;;;0.10;;
11767;SDS011;5941;57.652;12.514;2022-07-10T06:06:18;0.20;;;0.20;;
11767;SDS011;5941;57.652;12.514;2022-07-10T06:08:45;0.10;;;0.10;;
11767;SDS011;5941;57.652;12.514;2022-07-10T06:11:11;0.30;;;0.20;;
11767;SDS011;5941;57.652;12.514;2022-07-10T06:13:37;0.43;;;0.30;;
11767;SDS011;5941;57.652;12.514;2022-07-10T06:16:04;0.43;;;0.20;;
11767;SDS011;5941;57.652;12.514;2022-07-10T06:18:31;1.43;;;0.20;;
11767;SDS011;5941;57.652;12.514;2022-07-10T06:20:57;0.30;;;0.30;;
11767;SDS011;5941;57.652;12.514;2022-07-10T06:23:23;0.20;;;0.20;;
11767;SDS011;5941;57.652;12.514;2022-07-10T06:25:49;0.10;;;0.10;;
11767;SDS011;5941;57.652;12.514;2022-07-10T06:28:15;0.30;;;0.20;;
11767;SDS011;5941;57.652;12.514;2022-07-10T06:30:41;0.80;;;0.20;;
11767;SDS011;5941;57.652;12.514;2022-07-10T06:33:07;0.63;;;0.20;;
11767;SDS011;5941;57.652;12.514;2022-07-10T06:35:33;0.60;;;0.30;;
11767;SDS011;5941;57.652;12.514;2022-07-10T06:38:00;0.30;;;0.27;;
11767;SDS011;5941;57.652;12.514;2022-07-10T06:40:26;0.63;;;0.20;;
11767;SDS011;5941;57.652;12.514;2022-07-10T06:42:54;0.60;;;0.17;;
11767;SDS011;5941;57.652;12.514;2022-07-10T06:45:20;0.20;;;0.13;;
11767;SDS011;5941;57.652;12.514;2022-07-10T06:47:46;0.10;;;0.10;;
11767;SDS011;5941;57.652;12.514;2022-07-10T06:50:21;0.10;;;0.10;;
11767;SDS011;5941;57.652;12.514;2022-07-10T06:52:47;0.20;;;0.20;;
11767;SDS011;5941;57.652;12.514;2022-07-10T06:55:14;0.17;;;0.17;;
11767;SDS011;5941;57.652;12.514;2022-07-10T06:57:40;0.40;;;0.20;;
11767;SDS011;5941;57.652;12.514;2022-07-10T07:00:06;0.20;;;0.20;;
11767;SDS011;5941;57.652;12.514;2022-07-10T07:02:32;1.07;;;0.20;;
11767;SDS011;5941;57.652;12.514;2022-07-10T07:04:59;0.23;;;0.23;;
11767;SDS011;5941;57.652;12.514;2022-07-10T07:07:25;0.70;;;0.30;;
11767;SDS011;5941;57.652;12.514;2022-07-10T07:09:51;0.20;;;0.20;;
11767;SDS011;5941;57.652;12.514;2022-07-10T07:12:17;0.10;;;0.10;;
11767;SDS011;5941;57.652;12.514;2022-07-10T07:14:43;0.43;;;0.17;;
11767;SDS011;5941;57.652;12.514;2022-07-10T07:17:09;0.10;;;0.10;;
11767;SDS011;5941;57.652;12.514;2022-07-10T07:19:37;0.10;;;0.10;;
11767;SDS011;5941;57.652;12.514;2022-07-10T07:22:22;1.80;;;0.87;;
11767;SDS011;5941;57.652;12.514;2022-07-10T07:25:07;1.77;;;0.50;;
11767;SDS011;5941;57.652;12.514;2022-07-10T07:27:34;0.93;;;0.47;;
11767;SDS011;5941;57.652;12.514;2022-07-10T07:30:03;5.53;;;1.60;;
11767;SDS011;5941;57.652;12.514;2022-07-10T07:32:30;2.97;;;0.90;;
11767;SDS011;5941;57.652;12.514;2022-07-10T07:34:56;0.60;;;0.40;;
11767;SDS011;5941;57.652;12.514;2022-07-10T07:37:22;15.47;;;3.90;;
11767;SDS011;5941;57.652;12.514;2022-07-10T07:39:48;1.10;;;0.60;;
11767;SDS011;5941;57.652;12.514;2022-07-10T07:42:15;3.80;;;0.90;;
11767;SDS011;5941;57.652;12.514;2022-07-10T07:44:40;1.80;;;0.73;;
11767;SDS011;5941;57.652;12.514;2022-07-10T07:47:06;0.50;;;0.40;;
11767;SDS011;5941;57.652;12.514;2022-07-10T07:49:32;1.17;;;0.30;;
11767;SDS011;5941;57.652;12.514;2022-07-10T07:51:58;0.20;;;0.20;;
11767;SDS011;5941;57.652;12.514;2022-07-10T07:54:25;0.20;;;0.20;;
11767;SDS011;5941;57.652;12.514;2022-07-10T07:56:51;0.10;;;0.10;;
11767;SDS011;5941;57.652;12.514;2022-07-10T07:59:17;0.27;;;0.20;;
11767;SDS011;5941;57.652;12.514;2022-07-10T08:01:43;0.20;;;0.20;;
11767;SDS011;5941;57.652;12.514;2022-07-10T08:04:09;0.10;;;0.10;;
11767;SDS011;5941;57.652;12.514;2022-07-10T08:06:36;0.27;;;0.27;;
11767;SDS011;5941;57.652;12.514;2022-07-10T08:09:02;0.63;;;0.30;;
11767;SDS011;5941;57.652;12.514;2022-07-10T08:11:28;0.20;;;0.20;;
11767;SDS011;5941;57.652;12.514;2022-07-10T08:13:54;0.20;;;0.20;;
11767;SDS011;5941;57.652;12.514;2022-07-10T08:16:20;0.10;;;0.10;;
11767;SDS011;5941;57.652;12.514;2022-07-10T08:18:46;0.30;;;0.30;;
11767;SDS011;5941;57.652;12.514;2022-07-10T08:21:12;0.23;;;0.20;;
11767;SDS011;5941;57.652;12.514;2022-07-10T08:23:38;0.20;;;0.20;;
11767;SDS011;5941;57.652;12.514;2022-07-10T08:26:04;1.30;;;0.50;;
11767;SDS011;5941;57.652;12.514;2022-07-10T08:28:30;0.30;;;0.30;;
11767;SDS011;5941;57.652;12.514;2022-07-10T08:30:56;0.30;;;0.30;;
11767;SDS011;5941;57.652;12.514;2022-07-10T08:33:22;0.30;;;0.30;;
11767;SDS011;5941;57.652;12.514;2022-07-10T08:35:48;11.77;;;3.05;;
11767;SDS011;5941;57.652;12.514;2022-07-10T08:38:14;0.37;;;0.20;;
11767;SDS011;5941;57.652;12.514;2022-07-10T08:40:40;0.30;;;0.30;;
11767;SDS011;5941;57.652;12.514;2022-07-10T08:43:07;0.75;;;0.30;;
11767;SDS011;5941;57.652;12.514;2022-07-10T08:45:33;0.22;;;0.20;;
11767;SDS011;5941;57.652;12.514;2022-07-10T08:48:03;0.20;;;0.20;;
11767;SDS011;5941;57.652;12.514;2022-07-10T08:50:32;0.10;;;0.10;;
11767;SDS011;5941;57.652;12.514;2022-07-10T08:53:07;0.20;;;0.20;;
11767;SDS011;5941;57.652;12.514;2022-07-10T08:55:34;0.28;;;0.20;;
11767;SDS011;5941;57.652;12.514;2022-07-10T08:58:00;0.25;;;0.25;;
11767;SDS011;5941;57.652;12.514;2022-07-10T09:00:29;0.35;;;0.20;;
11767;SDS011;5941;57.652;12.514;2022-07-10T09:02:55;0.10;;;0.10;;
11767;SDS011;5941;57.652;12.514;2022-07-10T09:05:25;0.30;;;0.30;;
11767;SDS011;5941;57.652;12.514;2022-07-10T09:07:51;0.43;;;0.10;;
11767;SDS011;5941;57.652;12.514;2022-07-10T09:10:19;0.10;;;0.10;;
11767;SDS011;5941;57.652;12.514;2022-07-10T09:12:56;0.80;;;0.22;;
11767;SDS011;5941;57.652;12.514;2022-07-10T09:15:23;0.20;;;0.20;;
11767;SDS011;5941;57.652;12.514;2022-07-10T09:17:59;0.30;;;0.30;;
11767;SDS011;5941;57.652;12.514;2022-07-10T09:20:32;0.80;;;0.10;;
11767;SDS011;5941;57.652;12.514;2022-07-10T09:25:47;0.40;;;0.28;;
11767;SDS011;5941;57.652;12.514;2022-07-10T09:28:13;0.13;;;0.13;;
11767;SDS011;5941;57.652;12.514;2022-07-10T09:30:41;0.20;;;0.20;;
11767;SDS011;5941;57.652;12.514;2022-07-10T09:33:17;0.20;;;0.20;;
11767;SDS011;5941;57.652;12.514;2022-07-10T09:36:03;0.40;;;0.40;;
11767;SDS011;5941;57.652;12.514;2022-07-10T09:41:13;0.20;;;0.20;;
11767;SDS011;5941;57.652;12.514;2022-07-10T09:46:19;0.30;;;0.30;;
11767;SDS011;5941;57.652;12.514;2022-07-10T09:48:46;0.20;;;0.20;;
11767;SDS011;5941;57.652;12.514;2022-07-10T09:51:12;0.20;;;0.20;;
11767;SDS011;5941;57.652;12.514;2022-07-10T09:53:41;0.10;;;0.10;;
11767;SDS011;5941;57.652;12.514;2022-07-10T09:56:08;0.52;;;0.13;;
11767;SDS011;5941;57.652;12.514;2022-07-10T09:58:34;1.13;;;0.38;;
11767;SDS011;5941;57.652;12.514;2022-07-10T10:01:01;0.10;;;0.10;;
11767;SDS011;5941;57.652;12.514;2022-07-10T10:03:28;0.20;;;0.20;;
11767;SDS011;5941;57.652;12.514;2022-07-10T10:06:01;0.30;;;0.28;;
11767;SDS011;5941;57.652;12.514;2022-07-10T10:08:28;0.32;;;0.30;;
11767;SDS011;5941;57.652;12.514;2022-07-10T10:10:56;0.20;;;0.20;;
11767;SDS011;5941;57.652;12.514;2022-07-10T10:13:23;0.10;;;0.10;;
11767;SDS011;5941;57.652;12.514;2022-07-10T10:15:52;0.70;;;0.10;;
11767;SDS011;5941;57.652;12.514;2022-07-10T10:18:21;0.28;;;0.10;;
11767;SDS011;5941;57.652;12.514;2022-07-10T10:20:49;0.60;;;0.10;;
11767;SDS011;5941;57.652;12.514;2022-07-10T10:23:16;0.38;;;0.38;;
11767;SDS011;5941;57.652;12.514;2022-07-10T10:25:43;0.10;;;0.10;;
11767;SDS011;5941;57.652;12.514;2022-07-10T10:28:10;0.10;;;0.10;;
11767;SDS011;5941;57.652;12.514;2022-07-10T10:30:37;0.57;;;0.10;;
11767;SDS011;5941;57.652;12.514;2022-07-10T10:33:32;0.10;;;0.10;;
11767;SDS011;5941;57.652;12.514;2022-07-10T10:35:50;0.00;;;0.00;;
11767;SDS011;5941;57.652;12.514;2022-07-10T10:38:16;0.10;;;0.10;;
11767;SDS011;5941;57.652;12.514;2022-07-10T10:40:42;0.10;;;0.10;;
11767;SDS011;5941;57.652;12.514;2022-07-10T10:43:15;0.10;;;0.10;;
11767;SDS011;5941;57.652;12.514;2022-07-10T10:45:42;0.00;;;0.00;;
11767;SDS011;5941;57.652;12.514;2022-07-10T10:48:09;0.00;;;0.00;;
11767;SDS011;5941;57.652;12.514;2022-07-10T10:50:49;0.13;;;0.10;;
11767;SDS011;5941;57.652;12.514;2022-07-10T10:58:42;0.10;;;0.10;;
11767;SDS011;5941;57.652;12.514;2022-07-10T11:04:32;0.30;;;0.10;;
11767;SDS011;5941;57.652;12.514;2022-07-10T11:12:05;0.03;;;0.03;;
11767;SDS011;5941;57.652;12.514;2022-07-10T11:14:41;0.98;;;0.10;;
11767;SDS011;5941;57.652;12.514;2022-07-10T11:17:10;0.10;;;0.10;;
11767;SDS011;5941;57.652;12.514;2022-07-10T11:19:36;1.20;;;0.03;;
11767;SDS011;5941;57.652;12.514;2022-07-10T11:29:58;0.00;;;0.00;;
11767;SDS011;5941;57.652;12.514;2022-07-10T11:32:24;0.00;;;0.00;;
11767;SDS011;5941;57.652;12.514;2022-07-10T11:34:50;1.20;;;0.10;;
11767;SDS011;5941;57.652;12.514;2022-07-10T11:37:17;0.00;;;0.00;;
11767;SDS011;5941;57.652;12.514;2022-07-10T11:39:43;0.10;;;0.10;;
11767;SDS011;5941;57.652;12.514;2022-07-10T11:42:09;0.10;;;0.10;;
11767;SDS011;5941;57.652;12.514;2022-07-10T11:44:35;0.10;;;0.10;;
11767;SDS011;5941;57.652;12.514;2022-07-10T11:47:02;0.03;;;0.03;;
11767;SDS011;5941;57.652;12.514;2022-07-10T11:49:29;0.22;;;0.20;;
11767;SDS011;5941;57.652;12.514;2022-07-10T11:52:00;1.05;;;0.10;;
11767;SDS011;5941;57.652;12.514;2022-07-10T11:54:26;0.13;;;0.10;;
11767;SDS011;5941;57.652;12.514;2022-07-10T11:56:52;0.10;;;0.10;;
11767;SDS011;5941;57.652;12.514;2022-07-10T11:59:23;0.10;;;0.10;;
11767;SDS011;5941;57.652;12.514;2022-07-10T12:01:50;0.10;;;0.10;;
11767;SDS011;5941;57.652;12.514;2022-07-10T12:04:17;0.35;;;0.35;;
11767;SDS011;5941;57.652;12.514;2022-07-10T12:06:47;0.00;;;0.00;;
11767;SDS011;5941;57.652;12.514;2022-07-10T12:09:14;0.00;;;0.00;;
11767;SDS011;5941;57.652;12.514;2022-07-10T12:11:41;0.08;;;0.08;;
11767;SDS011;5941;57.652;12.514;2022-07-10T12:14:09;0.35;;;0.10;;
11767;SDS011;5941;57.652;12.514;2022-07-10T12:16:35;0.10;;;0.10;;
11767;SDS011;5941;57.652;12.514;2022-07-10T12:19:02;0.00;;;0.00;;
11767;SDS011;5941;57.652;12.514;2022-07-10T12:21:28;1.30;;;0.17;;
11767;SDS011;5941;57.652;12.514;2022-07-10T12:23:55;0.05;;;0.03;;
11767;SDS011;5941;57.652;12.514;2022-07-10T12:26:21;0.03;;;0.03;;
11767;SDS011;5941;57.652;12.514;2022-07-10T12:28:51;0.08;;;0.08;;
11767;SDS011;5941;57.652;12.514;2022-07-10T12:31:24;0.00;;;0.00;;
11767;SDS011;5941;57.652;12.514;2022-07-10T12:33:54;0.10;;;0.10;;
11767;SDS011;5941;57.652;12.514;2022-07-10T12:36:22;0.10;;;0.10;;
11767;SDS011;5941;57.652;12.514;2022-07-10T12:38:57;0.00;;;0.00;;
11767;SDS011;5941;57.652;12.514;2022-07-10T12:41:24;0.10;;;0.00;;
11767;SDS011;5941;57.652;12.514;2022-07-10T12:43:50;0.15;;;0.10;;
11767;SDS011;5941;57.652;12.514;2022-07-10T12:46:17;0.00;;;0.00;;
11767;SDS011;5941;57.652;12.514;2022-07-10T12:51:29;0.00;;;0.00;;
11767;SDS011;5941;57.652;12.514;2022-07-10T12:53:55;0.35;;;0.10;;
11767;SDS011;5941;57.652;12.514;2022-07-10T12:58:53;0.15;;;0.10;;
11767;SDS011;5941;57.652;12.514;2022-07-10T13:01:19;0.00;;;0.00;;
11767;SDS011;5941;57.652;12.514;2022-07-10T13:03:45;0.00;;;0.00;;
11767;SDS011;5941;57.652;12.514;2022-07-10T13:06:31;0.10;;;0.00;;
11767;SDS011;5941;57.652;12.514;2022-07-10T13:08:57;0.10;;;0.10;;
11767;SDS011;5941;57.652;12.514;2022-07-10T13:11:23;0.20;;;0.05;;
11767;SDS011;5941;57.652;12.514;2022-07-10T13:13:49;0.00;;;0.00;;
11767;SDS011;5941;57.652;12.514;2022-07-10T13:16:15;0.03;;;0.03;;
11767;SDS011;5941;57.652;12.514;2022-07-10T13:18:42;0.40;;;0.10;;
11767;SDS011;5941;57.652;12.514;2022-07-10T13:21:11;0.20;;;0.10;;
11767;SDS011;5941;57.652;12.514;2022-07-10T13:23:37;0.10;;;0.10;;
11767;SDS011;5941;57.652;12.514;2022-07-10T13:26:04;0.10;;;0.10;;
11767;SDS011;5941;57.652;12.514;2022-07-10T13:28:31;0.10;;;0.10;;
11767;SDS011;5941;57.652;12.514;2022-07-10T13:30:57;0.10;;;0.00;;
11767;SDS011;5941;57.652;12.514;2022-07-10T13:33:23;0.08;;;0.08;;
11767;SDS011;5941;57.652;12.514;2022-07-10T13:35:50;0.77;;;0.20;;
11767;SDS011;5941;57.652;12.514;2022-07-10T13:38:16;0.13;;;0.10;;
11767;SDS011;5941;57.652;12.514;2022-07-10T13:40:43;0.10;;;0.10;;
11767;SDS011;5941;57.652;12.514;2022-07-10T13:43:11;0.10;;;0.10;;
11767;SDS011;5941;57.652;12.514;2022-07-10T13:45:45;0.10;;;0.10;;
11767;SDS011;5941;57.652;12.514;2022-07-10T13:48:12;0.00;;;0.00;;
11767;SDS011;5941;57.652;12.514;2022-07-10T13:50:39;0.10;;;0.10;;
11767;SDS011;5941;57.652;12.514;2022-07-10T13:53:05;0.10;;;0.10;;
11767;SDS011;5941;57.652;12.514;2022-07-10T13:55:32;0.10;;;0.10;;
11767;SDS011;5941;57.652;12.514;2022-07-10T13:57:58;0.20;;;0.20;;
11767;SDS011;5941;57.652;12.514;2022-07-10T14:00:24;0.10;;;0.10;;
11767;SDS011;5941;57.652;12.514;2022-07-10T14:02:50;0.45;;;0.20;;
11767;SDS011;5941;57.652;12.514;2022-07-10T14:05:16;0.47;;;0.10;;
11767;SDS011;5941;57.652;12.514;2022-07-10T14:07:42;0.20;;;0.20;;
11767;SDS011;5941;57.652;12.514;2022-07-10T14:10:08;0.10;;;0.10;;
11767;SDS011;5941;57.652;12.514;2022-07-10T14:12:36;0.20;;;0.20;;
11767;SDS011;5941;57.652;12.514;2022-07-10T14:15:02;0.20;;;0.20;;
11767;SDS011;5941;57.652;12.514;2022-07-10T14:17:28;0.08;;;0.08;;
11767;SDS011;5941;57.652;12.514;2022-07-10T14:19:54;0.10;;;0.10;;
11767;SDS011;5941;57.652;12.514;2022-07-10T14:22:20;0.10;;;0.10;;
11767;SDS011;5941;57.652;12.514;2022-07-10T14:24:47;0.00;;;0.00;;
11767;SDS011;5941;57.652;12.514;2022-07-10T14:27:14;0.15;;;0.13;;
11767;SDS011;5941;57.652;12.514;2022-07-10T14:29:40;0.10;;;0.10;;
11767;SDS011;5941;57.652;12.514;2022-07-10T14:32:06;0.10;;;0.10;;
11767;SDS011;5941;57.652;12.514;2022-07-10T14:34:32;0.10;;;0.10;;
11767;SDS011;5941;57.652;12.514;2022-07-10T14:36:58;0.13;;;0.13;;
11767;SDS011;5941;57.652;12.514;2022-07-10T14:39:24;0.85;;;0.25;;
11767;SDS011;5941;57.652;12.514;2022-07-10T14:41:50;0.20;;;0.17;;
11767;SDS011;5941;57.652;12.514;2022-07-10T14:44:16;0.30;;;0.10;;
11767;SDS011;5941;57.652;12.514;2022-07-10T14:46:42;0.32;;;0.10;;
11767;SDS011;5941;57.652;12.514;2022-07-10T14:49:08;0.22;;;0.20;;
11767;SDS011;5941;57.652;12.514;2022-07-10T14:51:34;0.30;;;0.20;;
11767;SDS011;5941;57.652;12.514;2022-07-10T14:54:01;0.20;;;0.08;;
11767;SDS011;5941;57.652;12.514;2022-07-10T14:56:27;0.10;;;0.10;;
11767;SDS011;5941;57.652;12.514;2022-07-10T14:58:53;0.03;;;0.03;;
11767;SDS011;5941;57.652;12.514;2022-07-10T15:01:19;0.32;;;0.20;;
11767;SDS011;5941;57.652;12.514;2022-07-10T15:03:45;0.30;;;0.20;;
11767;SDS011;5941;57.652;12.514;2022-07-10T15:06:11;0.10;;;0.10;;
11767;SDS011;5941;57.652;12.514;2022-07-10T15:08:37;0.10;;;0.10;;
11767;SDS011;5941;57.652;12.514;2022-07-10T15:11:03;0.10;;;0.10;;
11767;SDS011;5941;57.652;12.514;2022-07-10T15:13:31;0.10;;;0.10;;
11767;SDS011;5941;57.652;12.514;2022-07-10T15:15:57;0.10;;;0.10;;
11767;SDS011;5941;57.652;12.514;2022-07-10T15:18:24;0.50;;;0.10;;
11767;SDS011;5941;57.652;12.514;2022-07-10T15:20:51;0.08;;;0.08;;
11767;SDS011;5941;57.652;12.514;2022-07-10T15:23:17;0.13;;;0.10;;
11767;SDS011;5941;57.652;12.514;2022-07-10T15:25:43;0.10;;;0.10;;